sensor_id;sensor_type;location;lat;lon;timestamp;temperature;humidity
43151;DHT22;28755;51.478;5.702;2023-04-15T00:00:15;9.10;99.90
43151;DHT22;28755;51.478;5.702;2023-04-15T00:02:42;9.10;99.90
43151;DHT22;28755;51.478;5.702;2023-04-15T00:05:08;9.00;99.90
43151;DHT22;28755;51.478;5.702;2023-04-15T00:07:34;9.00;99.90
43151;DHT22;28755;51.478;5.702;2023-04-15T00:10:00;9.00;99.90
43151;DHT22;28755;51.478;5.702;2023-04-15T00:12:26;8.90;99.90
43151;DHT22;28755;51.478;5.702;2023-04-15T00:14:52;8.90;99.90
43151;DHT22;28755;51.478;5.702;2023-04-15T00:17:19;8.90;99.90
43151;DHT22;28755;51.478;5.702;2023-04-15T00:19:44;8.90;99.90
43151;DHT22;28755;51.478;5.702;2023-04-15T00:22:10;8.80;99.90
43151;DHT22;28755;51.478;5.702;2023-04-15T00:24:37;8.70;99.90
43151;DHT22;28755;51.478;5.702;2023-04-15T00:27:02;8.70;99.90
43151;DHT22;28755;51.478;5.702;2023-04-15T00:29:28;8.60;99.90
43151;DHT22;28755;51.478;5.702;2023-04-15T00:31:55;8.60;99.90
43151;DHT22;28755;51.478;5.702;2023-04-15T00:34:21;8.60;99.90
43151;DHT22;28755;51.478;5.702;2023-04-15T00:36:47;8.50;99.90
43151;DHT22;28755;51.478;5.702;2023-04-15T00:39:12;8.50;99.90
43151;DHT22;28755;51.478;5.702;2023-04-15T00:41:38;8.40;99.90
43151;DHT22;28755;51.478;5.702;2023-04-15T00:44:07;8.40;99.90
43151;DHT22;28755;51.478;5.702;2023-04-15T00:46:35;8.40;99.90
43151;DHT22;28755;51.478;5.702;2023-04-15T00:49:03;8.40;99.90
43151;DHT22;28755;51.478;5.702;2023-04-15T00:51:29;8.30;99.90
43151;DHT22;28755;51.478;5.702;2023-04-15T00:53:56;8.40;99.90
43151;DHT22;28755;51.478;5.702;2023-04-15T00:56:22;8.20;99.90
43151;DHT22;28755;51.478;5.702;2023-04-15T00:58:49;8.20;99.90
43151;DHT22;28755;51.478;5.702;2023-04-15T01:01:17;8.20;99.90
43151;DHT22;28755;51.478;5.702;2023-04-15T01:03:46;8.10;99.90
43151;DHT22;28755;51.478;5.702;2023-04-15T01:06:13;8.20;99.90
43151;DHT22;28755;51.478;5.702;2023-04-15T01:08:38;8.00;99.90
43151;DHT22;28755;51.478;5.702;2023-04-15T01:11:05;8.10;99.90
43151;DHT22;28755;51.478;5.702;2023-04-15T01:13:32;8.00;99.90
43151;DHT22;28755;51.478;5.702;2023-04-15T01:15:58;8.00;99.90
43151;DHT22;28755;51.478;5.702;2023-04-15T01:18:25;7.90;99.90
43151;DHT22;28755;51.478;5.702;2023-04-15T01:20:51;7.90;99.90
43151;DHT22;28755;51.478;5.702;2023-04-15T01:23:17;7.90;99.90
43151;DHT22;28755;51.478;5.702;2023-04-15T01:25:43;7.90;99.90
43151;DHT22;28755;51.478;5.702;2023-04-15T01:28:09;8.00;99.90
43151;DHT22;28755;51.478;5.702;2023-04-15T01:30:35;7.90;99.90
43151;DHT22;28755;51.478;5.702;2023-04-15T01:33:01;7.80;99.90
43151;DHT22;28755;51.478;5.702;2023-04-15T01:35:27;7.90;99.90
43151;DHT22;28755;51.478;5.702;2023-04-15T01:37:53;7.80;99.90
43151;DHT22;28755;51.478;5.702;2023-04-15T01:40:21;7.80;99.90
43151;DHT22;28755;51.478;5.702;2023-04-15T01:42:47;7.80;99.90
43151;DHT22;28755;51.478;5.702;2023-04-15T01:45:12;7.80;99.90
43151;DHT22;28755;51.478;5.702;2023-04-15T01:47:38;7.70;99.90
43151;DHT22;28755;51.478;5.702;2023-04-15T01:50:04;7.70;99.90
43151;DHT22;28755;51.478;5.702;2023-04-15T01:52:31;7.70;99.90
43151;DHT22;28755;51.478;5.702;2023-04-15T01:54:56;7.60;99.90
43151;DHT22;28755;51.478;5.702;2023-04-15T01:57:22;7.60;99.90
43151;DHT22;28755;51.478;5.702;2023-04-15T01:59:48;7.60;99.90
43151;DHT22;28755;51.478;5.702;2023-04-15T02:02:13;7.60;99.90
43151;DHT22;28755;51.478;5.702;2023-04-15T02:04:39;7.50;99.90
43151;DHT22;28755;51.478;5.702;2023-04-15T02:07:05;7.50;99.90
43151;DHT22;28755;51.478;5.702;2023-04-15T02:09:31;7.50;99.90
43151;DHT22;28755;51.478;5.702;2023-04-15T02:11:57;7.40;99.90
43151;DHT22;28755;51.478;5.702;2023-04-15T02:14:22;7.40;99.90
43151;DHT22;28755;51.478;5.702;2023-04-15T02:16:48;7.40;99.90
43151;DHT22;28755;51.478;5.702;2023-04-15T02:19:13;7.40;99.90
43151;DHT22;28755;51.478;5.702;2023-04-15T02:21:39;7.30;99.90
43151;DHT22;28755;51.478;5.702;2023-04-15T02:24:05;7.30;99.90
43151;DHT22;28755;51.478;5.702;2023-04-15T02:26:31;7.40;99.90
43151;DHT22;28755;51.478;5.702;2023-04-15T02:28:58;7.30;99.90
43151;DHT22;28755;51.478;5.702;2023-04-15T02:31:24;7.20;99.90
43151;DHT22;28755;51.478;5.702;2023-04-15T02:33:50;7.20;99.90
43151;DHT22;28755;51.478;5.702;2023-04-15T02:36:15;7.30;99.90
43151;DHT22;28755;51.478;5.702;2023-04-15T02:38:41;7.10;99.90
43151;DHT22;28755;51.478;5.702;2023-04-15T02:41:10;7.10;99.90
43151;DHT22;28755;51.478;5.702;2023-04-15T02:43:36;7.10;99.90
43151;DHT22;28755;51.478;5.702;2023-04-15T02:46:04;7.00;99.90
43151;DHT22;28755;51.478;5.702;2023-04-15T02:48:30;7.00;99.90
43151;DHT22;28755;51.478;5.702;2023-04-15T02:51:15;7.00;99.90
43151;DHT22;28755;51.478;5.702;2023-04-15T02:53:41;7.00;99.90
43151;DHT22;28755;51.478;5.702;2023-04-15T02:56:07;6.90;99.90
43151;DHT22;28755;51.478;5.702;2023-04-15T02:58:34;6.90;99.90
43151;DHT22;28755;51.478;5.702;2023-04-15T03:01:00;6.90;99.90
43151;DHT22;28755;51.478;5.702;2023-04-15T03:03:26;6.90;99.90
43151;DHT22;28755;51.478;5.702;2023-04-15T03:05:52;6.80;99.90
43151;DHT22;28755;51.478;5.702;2023-04-15T03:08:18;6.80;99.90
43151;DHT22;28755;51.478;5.702;2023-04-15T03:10:45;6.80;99.90
43151;DHT22;28755;51.478;5.702;2023-04-15T03:13:11;6.80;99.90
43151;DHT22;28755;51.478;5.702;2023-04-15T03:15:37;6.80;99.90
43151;DHT22;28755;51.478;5.702;2023-04-15T03:18:02;6.70;99.90
43151;DHT22;28755;51.478;5.702;2023-04-15T03:20:28;6.60;99.90
43151;DHT22;28755;51.478;5.702;2023-04-15T03:22:54;6.60;99.90
43151;DHT22;28755;51.478;5.702;2023-04-15T03:25:19;6.60;99.90
43151;DHT22;28755;51.478;5.702;2023-04-15T03:27:45;6.50;99.90
43151;DHT22;28755;51.478;5.702;2023-04-15T03:30:11;6.60;99.90
43151;DHT22;28755;51.478;5.702;2023-04-15T03:32:37;6.50;99.90
43151;DHT22;28755;51.478;5.702;2023-04-15T03:35:03;6.50;99.90
43151;DHT22;28755;51.478;5.702;2023-04-15T03:37:29;6.50;99.90
43151;DHT22;28755;51.478;5.702;2023-04-15T03:39:54;6.50;99.90
43151;DHT22;28755;51.478;5.702;2023-04-15T03:42:20;6.40;99.90
43151;DHT22;28755;51.478;5.702;2023-04-15T03:44:46;6.40;99.90
43151;DHT22;28755;51.478;5.702;2023-04-15T03:47:11;6.40;99.90
43151;DHT22;28755;51.478;5.702;2023-04-15T03:49:37;6.40;99.90
43151;DHT22;28755;51.478;5.702;2023-04-15T03:52:03;6.30;99.90
43151;DHT22;28755;51.478;5.702;2023-04-15T03:54:28;6.40;99.90
43151;DHT22;28755;51.478;5.702;2023-04-15T03:56:54;6.30;99.90
43151;DHT22;28755;51.478;5.702;2023-04-15T03:59:20;6.20;99.90
43151;DHT22;28755;51.478;5.702;2023-04-15T04:01:45;6.30;99.90
43151;DHT22;28755;51.478;5.702;2023-04-15T04:04:11;6.30;99.90
43151;DHT22;28755;51.478;5.702;2023-04-15T04:06:36;6.20;99.90
43151;DHT22;28755;51.478;5.702;2023-04-15T04:09:02;6.20;99.90
43151;DHT22;28755;51.478;5.702;2023-04-15T04:11:28;6.20;99.90
43151;DHT22;28755;51.478;5.702;2023-04-15T04:13:53;6.20;99.90
43151;DHT22;28755;51.478;5.702;2023-04-15T04:16:19;6.20;99.90
43151;DHT22;28755;51.478;5.702;2023-04-15T04:18:44;6.20;99.90
43151;DHT22;28755;51.478;5.702;2023-04-15T04:21:10;6.20;99.90
43151;DHT22;28755;51.478;5.702;2023-04-15T04:23:36;6.10;99.90
43151;DHT22;28755;51.478;5.702;2023-04-15T04:26:02;6.10;99.90
43151;DHT22;28755;51.478;5.702;2023-04-15T04:28:27;6.10;99.90
43151;DHT22;28755;51.478;5.702;2023-04-15T04:30:53;6.00;99.90
43151;DHT22;28755;51.478;5.702;2023-04-15T04:33:18;6.00;99.90
43151;DHT22;28755;51.478;5.702;2023-04-15T04:35:44;6.00;99.90
43151;DHT22;28755;51.478;5.702;2023-04-15T04:38:10;6.00;99.90
43151;DHT22;28755;51.478;5.702;2023-04-15T04:40:35;5.90;99.90
43151;DHT22;28755;51.478;5.702;2023-04-15T04:43:01;6.00;99.90
43151;DHT22;28755;51.478;5.702;2023-04-15T04:45:27;5.90;99.90
43151;DHT22;28755;51.478;5.702;2023-04-15T04:47:52;5.90;99.90
43151;DHT22;28755;51.478;5.702;2023-04-15T04:50:18;5.90;99.90
43151;DHT22;28755;51.478;5.702;2023-04-15T04:52:44;5.90;99.90
43151;DHT22;28755;51.478;5.702;2023-04-15T04:55:10;5.90;99.90
43151;DHT22;28755;51.478;5.702;2023-04-15T04:57:36;5.90;99.90
43151;DHT22;28755;51.478;5.702;2023-04-15T05:00:04;5.90;99.90
43151;DHT22;28755;51.478;5.702;2023-04-15T05:02:30;5.90;99.90
43151;DHT22;28755;51.478;5.702;2023-04-15T05:04:56;5.90;99.90
43151;DHT22;28755;51.478;5.702;2023-04-15T05:07:22;6.00;99.90
43151;DHT22;28755;51.478;5.702;2023-04-15T05:09:48;6.00;99.90
43151;DHT22;28755;51.478;5.702;2023-04-15T05:12:13;6.00;99.90
43151;DHT22;28755;51.478;5.702;2023-04-15T05:14:43;6.00;99.90
43151;DHT22;28755;51.478;5.702;2023-04-15T05:17:08;6.10;99.90
43151;DHT22;28755;51.478;5.702;2023-04-15T05:19:35;6.10;99.90
43151;DHT22;28755;51.478;5.702;2023-04-15T05:22:01;6.20;99.90
43151;DHT22;28755;51.478;5.702;2023-04-15T05:24:26;6.20;99.90
43151;DHT22;28755;51.478;5.702;2023-04-15T05:26:52;6.30;99.90
43151;DHT22;28755;51.478;5.702;2023-04-15T05:29:17;6.40;99.90
43151;DHT22;28755;51.478;5.702;2023-04-15T05:31:43;6.40;99.90
43151;DHT22;28755;51.478;5.702;2023-04-15T05:34:09;6.50;99.90
43151;DHT22;28755;51.478;5.702;2023-04-15T05:36:36;6.60;99.90
43151;DHT22;28755;51.478;5.702;2023-04-15T05:39:01;6.70;99.90
43151;DHT22;28755;51.478;5.702;2023-04-15T05:41:27;6.80;99.90
43151;DHT22;28755;51.478;5.702;2023-04-15T05:43:53;6.90;99.90
43151;DHT22;28755;51.478;5.702;2023-04-15T05:46:18;6.90;99.90
43151;DHT22;28755;51.478;5.702;2023-04-15T05:48:44;6.90;99.90
43151;DHT22;28755;51.478;5.702;2023-04-15T05:51:10;6.90;99.90
43151;DHT22;28755;51.478;5.702;2023-04-15T05:53:36;7.00;99.90
43151;DHT22;28755;51.478;5.702;2023-04-15T05:56:03;7.00;99.90
43151;DHT22;28755;51.478;5.702;2023-04-15T05:58:28;7.00;99.90
43151;DHT22;28755;51.478;5.702;2023-04-15T06:00:54;7.20;99.90
43151;DHT22;28755;51.478;5.702;2023-04-15T06:03:19;7.20;99.90
43151;DHT22;28755;51.478;5.702;2023-04-15T06:05:47;7.20;99.90
43151;DHT22;28755;51.478;5.702;2023-04-15T06:08:12;7.40;99.90
43151;DHT22;28755;51.478;5.702;2023-04-15T06:10:41;7.50;99.90
43151;DHT22;28755;51.478;5.702;2023-04-15T06:13:07;7.60;99.90
43151;DHT22;28755;51.478;5.702;2023-04-15T06:15:32;7.70;99.90
43151;DHT22;28755;51.478;5.702;2023-04-15T06:17:58;7.80;99.90
43151;DHT22;28755;51.478;5.702;2023-04-15T06:20:24;7.80;99.90
43151;DHT22;28755;51.478;5.702;2023-04-15T06:22:49;7.90;99.90
43151;DHT22;28755;51.478;5.702;2023-04-15T06:25:15;7.90;99.90
43151;DHT22;28755;51.478;5.702;2023-04-15T06:27:41;7.90;99.90
43151;DHT22;28755;51.478;5.702;2023-04-15T06:30:07;7.90;99.90
43151;DHT22;28755;51.478;5.702;2023-04-15T06:32:33;8.00;99.90
43151;DHT22;28755;51.478;5.702;2023-04-15T06:34:59;8.00;99.90
43151;DHT22;28755;51.478;5.702;2023-04-15T06:37:25;8.10;99.90
43151;DHT22;28755;51.478;5.702;2023-04-15T06:39:50;8.10;99.90
43151;DHT22;28755;51.478;5.702;2023-04-15T06:42:16;8.10;99.90
43151;DHT22;28755;51.478;5.702;2023-04-15T06:44:44;8.20;99.90
43151;DHT22;28755;51.478;5.702;2023-04-15T06:47:10;8.30;99.90
43151;DHT22;28755;51.478;5.702;2023-04-15T06:49:39;8.40;99.90
43151;DHT22;28755;51.478;5.702;2023-04-15T06:52:05;8.50;99.90
43151;DHT22;28755;51.478;5.702;2023-04-15T06:54:30;8.70;99.90
43151;DHT22;28755;51.478;5.702;2023-04-15T06:56:56;8.70;99.90
43151;DHT22;28755;51.478;5.702;2023-04-15T06:59:21;8.80;99.90
43151;DHT22;28755;51.478;5.702;2023-04-15T07:01:47;9.00;99.90
43151;DHT22;28755;51.478;5.702;2023-04-15T07:04:13;9.10;99.90
43151;DHT22;28755;51.478;5.702;2023-04-15T07:06:38;9.20;99.90
43151;DHT22;28755;51.478;5.702;2023-04-15T07:09:04;9.30;99.90
43151;DHT22;28755;51.478;5.702;2023-04-15T07:11:30;9.50;99.90
43151;DHT22;28755;51.478;5.702;2023-04-15T07:13:57;9.70;99.90
43151;DHT22;28755;51.478;5.702;2023-04-15T07:16:22;10.00;99.90
43151;DHT22;28755;51.478;5.702;2023-04-15T07:18:50;10.30;99.90
43151;DHT22;28755;51.478;5.702;2023-04-15T07:21:26;10.70;99.90
43151;DHT22;28755;51.478;5.702;2023-04-15T07:23:52;10.80;99.90
43151;DHT22;28755;51.478;5.702;2023-04-15T07:26:17;10.90;99.90
43151;DHT22;28755;51.478;5.702;2023-04-15T07:28:45;11.10;99.90
43151;DHT22;28755;51.478;5.702;2023-04-15T07:31:12;11.20;99.90
43151;DHT22;28755;51.478;5.702;2023-04-15T07:33:45;11.30;99.90
43151;DHT22;28755;51.478;5.702;2023-04-15T07:36:10;11.40;99.90
43151;DHT22;28755;51.478;5.702;2023-04-15T07:38:43;11.60;99.90
43151;DHT22;28755;51.478;5.702;2023-04-15T07:41:11;11.80;99.90
43151;DHT22;28755;51.478;5.702;2023-04-15T07:43:37;11.90;99.90
43151;DHT22;28755;51.478;5.702;2023-04-15T07:46:06;12.00;99.90
43151;DHT22;28755;51.478;5.702;2023-04-15T07:48:31;12.50;99.90
43151;DHT22;28755;51.478;5.702;2023-04-15T07:50:58;12.80;99.90
43151;DHT22;28755;51.478;5.702;2023-04-15T07:53:26;13.40;99.90
43151;DHT22;28755;51.478;5.702;2023-04-15T07:55:52;13.80;99.90
43151;DHT22;28755;51.478;5.702;2023-04-15T07:58:17;13.90;99.90
43151;DHT22;28755;51.478;5.702;2023-04-15T08:00:45;14.00;99.90
43151;DHT22;28755;51.478;5.702;2023-04-15T08:03:31;14.10;99.90
43151;DHT22;28755;51.478;5.702;2023-04-15T08:05:57;14.30;99.90
43151;DHT22;28755;51.478;5.702;2023-04-15T08:08:25;14.70;99.90
43151;DHT22;28755;51.478;5.702;2023-04-15T08:10:51;15.60;99.90
43151;DHT22;28755;51.478;5.702;2023-04-15T08:13:17;16.00;99.90
43151;DHT22;28755;51.478;5.702;2023-04-15T08:15:43;16.20;99.90
43151;DHT22;28755;51.478;5.702;2023-04-15T08:18:20;16.80;99.90
43151;DHT22;28755;51.478;5.702;2023-04-15T08:21:04;17.20;99.90
43151;DHT22;28755;51.478;5.702;2023-04-15T08:23:30;18.10;99.90
43151;DHT22;28755;51.478;5.702;2023-04-15T08:25:57;18.70;99.90
43151;DHT22;28755;51.478;5.702;2023-04-15T08:28:22;18.80;99.90
43151;DHT22;28755;51.478;5.702;2023-04-15T08:31:14;18.00;99.90
43151;DHT22;28755;51.478;5.702;2023-04-15T08:33:56;18.40;99.90
43151;DHT22;28755;51.478;5.702;2023-04-15T08:36:25;18.80;99.90
43151;DHT22;28755;51.478;5.702;2023-04-15T08:38:53;18.00;99.90
43151;DHT22;28755;51.478;5.702;2023-04-15T08:41:22;17.60;99.90
43151;DHT22;28755;51.478;5.702;2023-04-15T08:43:53;17.30;99.90
43151;DHT22;28755;51.478;5.702;2023-04-15T08:46:21;16.90;99.90
43151;DHT22;28755;51.478;5.702;2023-04-15T08:48:53;17.10;99.90
43151;DHT22;28755;51.478;5.702;2023-04-15T08:51:39;17.80;99.90
43151;DHT22;28755;51.478;5.702;2023-04-15T08:54:34;18.80;99.90
43151;DHT22;28755;51.478;5.702;2023-04-15T08:57:09;19.50;99.90
43151;DHT22;28755;51.478;5.702;2023-04-15T08:59:45;19.70;99.90
43151;DHT22;28755;51.478;5.702;2023-04-15T09:02:27;20.30;99.90
43151;DHT22;28755;51.478;5.702;2023-04-15T09:04:53;20.30;99.90
43151;DHT22;28755;51.478;5.702;2023-04-15T09:07:19;19.70;99.90
43151;DHT22;28755;51.478;5.702;2023-04-15T09:09:47;20.30;99.90
43151;DHT22;28755;51.478;5.702;2023-04-15T09:12:16;20.40;99.90
43151;DHT22;28755;51.478;5.702;2023-04-15T09:14:44;21.00;99.90
43151;DHT22;28755;51.478;5.702;2023-04-15T09:17:19;20.80;99.90
43151;DHT22;28755;51.478;5.702;2023-04-15T09:19:46;20.50;99.90
43151;DHT22;28755;51.478;5.702;2023-04-15T09:22:16;20.80;99.90
43151;DHT22;28755;51.478;5.702;2023-04-15T09:24:47;21.50;99.90
43151;DHT22;28755;51.478;5.702;2023-04-15T09:27:15;22.00;99.90
43151;DHT22;28755;51.478;5.702;2023-04-15T09:29:41;21.70;99.90
43151;DHT22;28755;51.478;5.702;2023-04-15T09:32:13;21.50;99.90
43151;DHT22;28755;51.478;5.702;2023-04-15T09:34:39;21.10;99.90
43151;DHT22;28755;51.478;5.702;2023-04-15T09:37:05;21.00;99.90
43151;DHT22;28755;51.478;5.702;2023-04-15T09:39:51;21.10;99.90
43151;DHT22;28755;51.478;5.702;2023-04-15T09:42:17;20.90;99.90
43151;DHT22;28755;51.478;5.702;2023-04-15T09:44:49;20.50;99.90
43151;DHT22;28755;51.478;5.702;2023-04-15T09:47:31;20.60;99.90
43151;DHT22;28755;51.478;5.702;2023-04-15T09:49:58;20.20;99.90
43151;DHT22;28755;51.478;5.702;2023-04-15T09:52:24;19.40;99.90
43151;DHT22;28755;51.478;5.702;2023-04-15T09:54:52;19.50;99.90
43151;DHT22;28755;51.478;5.702;2023-04-15T09:57:19;19.70;99.90
43151;DHT22;28755;51.478;5.702;2023-04-15T09:59:46;20.40;99.90
43151;DHT22;28755;51.478;5.702;2023-04-15T10:02:12;21.00;99.90
43151;DHT22;28755;51.478;5.702;2023-04-15T10:04:42;20.40;99.90
43151;DHT22;28755;51.478;5.702;2023-04-15T10:07:09;20.50;99.90
43151;DHT22;28755;51.478;5.702;2023-04-15T10:09:35;21.50;99.90
43151;DHT22;28755;51.478;5.702;2023-04-15T10:12:03;22.30;99.90
43151;DHT22;28755;51.478;5.702;2023-04-15T10:14:33;21.60;99.90
43151;DHT22;28755;51.478;5.702;2023-04-15T10:17:01;21.60;99.90
43151;DHT22;28755;51.478;5.702;2023-04-15T10:19:30;21.60;99.90
43151;DHT22;28755;51.478;5.702;2023-04-15T10:21:57;21.10;99.90
43151;DHT22;28755;51.478;5.702;2023-04-15T10:24:23;21.40;99.90
43151;DHT22;28755;51.478;5.702;2023-04-15T10:26:50;21.00;99.90
43151;DHT22;28755;51.478;5.702;2023-04-15T10:29:17;20.90;99.90
43151;DHT22;28755;51.478;5.702;2023-04-15T10:31:43;20.60;99.90
43151;DHT22;28755;51.478;5.702;2023-04-15T10:34:09;20.70;99.90
43151;DHT22;28755;51.478;5.702;2023-04-15T10:36:36;20.80;99.90
43151;DHT22;28755;51.478;5.702;2023-04-15T10:39:02;20.70;99.90
43151;DHT22;28755;51.478;5.702;2023-04-15T10:42:11;21.10;99.90
43151;DHT22;28755;51.478;5.702;2023-04-15T10:44:38;21.40;99.90
43151;DHT22;28755;51.478;5.702;2023-04-15T10:47:11;21.30;99.90
43151;DHT22;28755;51.478;5.702;2023-04-15T10:49:48;20.00;99.90
43151;DHT22;28755;51.478;5.702;2023-04-15T10:52:16;19.00;99.90
43151;DHT22;28755;51.478;5.702;2023-04-15T10:54:43;19.10;99.90
43151;DHT22;28755;51.478;5.702;2023-04-15T10:57:57;19.50;99.90
43151;DHT22;28755;51.478;5.702;2023-04-15T11:00:10;20.50;99.90
43151;DHT22;28755;51.478;5.702;2023-04-15T11:02:52;21.20;99.70
43151;DHT22;28755;51.478;5.702;2023-04-15T11:05:19;20.70;99.90
43151;DHT22;28755;51.478;5.702;2023-04-15T11:12:42;19.90;99.90
43151;DHT22;28755;51.478;5.702;2023-04-15T11:15:34;19.50;99.90
43151;DHT22;28755;51.478;5.702;2023-04-15T11:18:13;19.30;99.90
43151;DHT22;28755;51.478;5.702;2023-04-15T11:20:40;19.60;99.90
43151;DHT22;28755;51.478;5.702;2023-04-15T11:23:07;19.20;99.90
43151;DHT22;28755;51.478;5.702;2023-04-15T11:25:34;19.30;99.90
43151;DHT22;28755;51.478;5.702;2023-04-15T11:28:02;19.80;99.90
43151;DHT22;28755;51.478;5.702;2023-04-15T11:30:30;19.90;99.90
43151;DHT22;28755;51.478;5.702;2023-04-15T11:33:07;19.90;99.90
43151;DHT22;28755;51.478;5.702;2023-04-15T11:35:33;19.70;99.90
43151;DHT22;28755;51.478;5.702;2023-04-15T11:38:08;19.80;99.90
43151;DHT22;28755;51.478;5.702;2023-04-15T11:40:35;20.10;99.90
43151;DHT22;28755;51.478;5.702;2023-04-15T11:43:09;20.20;99.90
43151;DHT22;28755;51.478;5.702;2023-04-15T11:45:36;20.20;99.90
43151;DHT22;28755;51.478;5.702;2023-04-15T11:48:10;20.10;99.90
43151;DHT22;28755;51.478;5.702;2023-04-15T11:50:37;19.90;99.90
43151;DHT22;28755;51.478;5.702;2023-04-15T11:53:09;20.50;99.90
43151;DHT22;28755;51.478;5.702;2023-04-15T11:55:50;20.30;99.90
43151;DHT22;28755;51.478;5.702;2023-04-15T11:58:24;20.10;99.90
43151;DHT22;28755;51.478;5.702;2023-04-15T12:00:52;19.60;99.90
43151;DHT22;28755;51.478;5.702;2023-04-15T12:03:36;20.20;99.90
43151;DHT22;28755;51.478;5.702;2023-04-15T12:11:21;20.80;99.90
43151;DHT22;28755;51.478;5.702;2023-04-15T12:14:06;20.40;99.90
43151;DHT22;28755;51.478;5.702;2023-04-15T12:16:34;21.10;99.90
43151;DHT22;28755;51.478;5.702;2023-04-15T12:19:04;21.80;99.50
43151;DHT22;28755;51.478;5.702;2023-04-15T12:21:34;22.70;99.20
43151;DHT22;28755;51.478;5.702;2023-04-15T12:24:03;23.30;98.40
43151;DHT22;28755;51.478;5.702;2023-04-15T12:26:33;22.90;98.60
43151;DHT22;28755;51.478;5.702;2023-04-15T12:29:05;23.30;98.80
43151;DHT22;28755;51.478;5.702;2023-04-15T12:31:34;22.80;98.60
43151;DHT22;28755;51.478;5.702;2023-04-15T12:34:01;21.30;98.90
43151;DHT22;28755;51.478;5.702;2023-04-15T12:36:28;20.00;99.90
43151;DHT22;28755;51.478;5.702;2023-04-15T12:38:56;20.40;99.40
43151;DHT22;28755;51.478;5.702;2023-04-15T12:41:22;20.60;99.50
43151;DHT22;28755;51.478;5.702;2023-04-15T12:43:49;20.00;99.90
43151;DHT22;28755;51.478;5.702;2023-04-15T12:46:14;19.20;99.90
43151;DHT22;28755;51.478;5.702;2023-04-15T12:48:40;18.60;99.90
43151;DHT22;28755;51.478;5.702;2023-04-15T12:51:06;18.30;99.90
43151;DHT22;28755;51.478;5.702;2023-04-15T12:53:32;18.70;99.90
43151;DHT22;28755;51.478;5.702;2023-04-15T12:55:57;18.80;99.90
43151;DHT22;28755;51.478;5.702;2023-04-15T12:58:23;18.50;99.90
43151;DHT22;28755;51.478;5.702;2023-04-15T13:00:49;18.80;99.90
43151;DHT22;28755;51.478;5.702;2023-04-15T13:03:15;19.40;99.90
43151;DHT22;28755;51.478;5.702;2023-04-15T13:05:41;18.70;99.90
43151;DHT22;28755;51.478;5.702;2023-04-15T13:08:07;18.50;99.90
43151;DHT22;28755;51.478;5.702;2023-04-15T13:10:34;19.60;99.90
43151;DHT22;28755;51.478;5.702;2023-04-15T13:13:01;20.00;99.90
43151;DHT22;28755;51.478;5.702;2023-04-15T13:15:28;19.10;99.90
43151;DHT22;28755;51.478;5.702;2023-04-15T13:17:54;17.80;99.90
43151;DHT22;28755;51.478;5.702;2023-04-15T13:20:22;18.10;99.90
43151;DHT22;28755;51.478;5.702;2023-04-15T13:22:48;17.90;99.90
43151;DHT22;28755;51.478;5.702;2023-04-15T13:25:13;17.20;99.90
43151;DHT22;28755;51.478;5.702;2023-04-15T13:27:39;17.20;99.90
43151;DHT22;28755;51.478;5.702;2023-04-15T13:30:05;17.20;99.90
43151;DHT22;28755;51.478;5.702;2023-04-15T13:32:31;17.30;99.90
43151;DHT22;28755;51.478;5.702;2023-04-15T13:34:57;17.40;99.90
43151;DHT22;28755;51.478;5.702;2023-04-15T13:37:27;18.30;99.90
43151;DHT22;28755;51.478;5.702;2023-04-15T13:39:53;18.50;99.90
43151;DHT22;28755;51.478;5.702;2023-04-15T13:42:19;18.90;99.90
43151;DHT22;28755;51.478;5.702;2023-04-15T13:44:45;19.00;99.90
43151;DHT22;28755;51.478;5.702;2023-04-15T13:47:10;19.40;99.90
43151;DHT22;28755;51.478;5.702;2023-04-15T13:49:37;19.90;99.90
43151;DHT22;28755;51.478;5.702;2023-04-15T13:52:02;19.20;99.90
43151;DHT22;28755;51.478;5.702;2023-04-15T13:54:28;18.70;99.90
43151;DHT22;28755;51.478;5.702;2023-04-15T13:56:54;18.60;99.90
43151;DHT22;28755;51.478;5.702;2023-04-15T13:59:21;19.00;99.90
43151;DHT22;28755;51.478;5.702;2023-04-15T14:01:47;19.10;99.90
43151;DHT22;28755;51.478;5.702;2023-04-15T14:04:13;18.40;99.90
43151;DHT22;28755;51.478;5.702;2023-04-15T14:06:38;17.30;99.90
43151;DHT22;28755;51.478;5.702;2023-04-15T14:09:04;17.10;99.90
43151;DHT22;28755;51.478;5.702;2023-04-15T14:11:30;17.80;99.90
43151;DHT22;28755;51.478;5.702;2023-04-15T14:13:56;17.60;99.90
43151;DHT22;28755;51.478;5.702;2023-04-15T14:16:21;17.30;99.90
43151;DHT22;28755;51.478;5.702;2023-04-15T14:18:47;17.30;99.90
43151;DHT22;28755;51.478;5.702;2023-04-15T14:21:12;17.10;99.90
43151;DHT22;28755;51.478;5.702;2023-04-15T14:23:38;17.40;99.90
43151;DHT22;28755;51.478;5.702;2023-04-15T14:26:04;17.00;99.90
43151;DHT22;28755;51.478;5.702;2023-04-15T14:28:29;16.60;99.90
43151;DHT22;28755;51.478;5.702;2023-04-15T14:30:56;16.80;99.90
43151;DHT22;28755;51.478;5.702;2023-04-15T14:33:22;16.80;99.90
43151;DHT22;28755;51.478;5.702;2023-04-15T14:35:49;16.40;99.90
43151;DHT22;28755;51.478;5.702;2023-04-15T14:38:15;16.50;99.90
43151;DHT22;28755;51.478;5.702;2023-04-15T14:40:41;16.70;99.90
43151;DHT22;28755;51.478;5.702;2023-04-15T14:43:06;17.00;99.90
43151;DHT22;28755;51.478;5.702;2023-04-15T14:45:32;16.90;99.90
43151;DHT22;28755;51.478;5.702;2023-04-15T14:47:58;16.90;99.90
43151;DHT22;28755;51.478;5.702;2023-04-15T14:50:24;16.80;99.90
43151;DHT22;28755;51.478;5.702;2023-04-15T14:52:49;17.10;99.90
43151;DHT22;28755;51.478;5.702;2023-04-15T14:55:15;17.10;99.90
43151;DHT22;28755;51.478;5.702;2023-04-15T14:57:41;17.00;99.90
43151;DHT22;28755;51.478;5.702;2023-04-15T15:00:08;16.50;99.90
43151;DHT22;28755;51.478;5.702;2023-04-15T15:02:35;16.50;99.90
43151;DHT22;28755;51.478;5.702;2023-04-15T15:05:01;16.30;99.90
43151;DHT22;28755;51.478;5.702;2023-04-15T15:07:27;15.80;99.90
43151;DHT22;28755;51.478;5.702;2023-04-15T15:09:53;15.50;99.90
43151;DHT22;28755;51.478;5.702;2023-04-15T15:12:19;15.50;99.90
43151;DHT22;28755;51.478;5.702;2023-04-15T15:14:46;15.80;99.90
43151;DHT22;28755;51.478;5.702;2023-04-15T15:17:13;15.70;99.90
43151;DHT22;28755;51.478;5.702;2023-04-15T15:19:39;15.80;99.90
43151;DHT22;28755;51.478;5.702;2023-04-15T15:22:05;15.70;99.90
43151;DHT22;28755;51.478;5.702;2023-04-15T15:24:31;15.50;99.90
43151;DHT22;28755;51.478;5.702;2023-04-15T15:26:56;15.50;99.90
43151;DHT22;28755;51.478;5.702;2023-04-15T15:29:22;15.40;99.90
43151;DHT22;28755;51.478;5.702;2023-04-15T15:31:51;15.30;99.90
43151;DHT22;28755;51.478;5.702;2023-04-15T15:34:17;15.20;99.90
43151;DHT22;28755;51.478;5.702;2023-04-15T15:36:42;15.50;99.90
43151;DHT22;28755;51.478;5.702;2023-04-15T15:39:10;15.40;99.90
43151;DHT22;28755;51.478;5.702;2023-04-15T15:41:35;15.40;99.90
43151;DHT22;28755;51.478;5.702;2023-04-15T15:44:01;15.20;99.90
43151;DHT22;28755;51.478;5.702;2023-04-15T15:46:27;15.10;99.90
43151;DHT22;28755;51.478;5.702;2023-04-15T15:48:53;15.00;99.90